Terminal Aerodrome Forecast
Issued by NWS

Home | Current Version | Previous Version | Graphics & Text | Print | Product List | Glossary On
Versions: 1 2 3 4 5 6 7 8 9 10 11 12 13 14
000
FTUS43 KBIS 302320
TAFDIK
TAF
KDIK 302320Z 0100/0124 06013KT P6SM SCT070
     FM010200 06008KT P6SM FEW250
     FM010800 36004KT P6SM SKC=

USA.gov is the U.S. government's official web portal to all federal, state and local government web resources and services.